SL6 weather

CLOSED Lourdes-de-Blanc-Sablon Water Aerodrome
Lourdes-de-Blanc, Quebec, Canada

Public forecast

Using degrees Celsius for public forecast. Weather courtesy of forecast.io.

METAR (pilot weather report)

Closest report is Lourdes de Blanc Sablon Airport, 2.2 nm (4.0 km) NNE. Retrieved 2019/07/22 10:00 UTC (52 minutes ago):

CYBX 221000Z CCA VRB02KT 15SM SCT009 BKN014 OVC025 10/09 A2960 RMK SF3SC4SC1 SLP027

TAF (pilot weather forecast)

Closest forecast is Lourdes de Blanc Sablon Airport, 2.2 nm (4.0 km) NNE. Retrieved 2019/07/22 08:00 UTC (3 hours ago):

TAF CYBX 220748Z 2208/2220 07008KT 6SM BR SCT007 OVC012 TEMPO 2208/2219 11/2SM -RA BR OVC007 PROB30 2208/2219 3/4SM -RA BR OVC002 FM221900 31012KT P6SM BKN020 RMK NXT FCST BY 221400Z